Relevés horaires Semmerzake (Belgique)


Relevés horaires à Semmerzake - Lundi 14 Juin 2021
Heure UTC1 Température [°C] Vent [km/h] Hum. [%] Pres.4 [hPa] Visi. [Km] Nébu. [octa] Préc.5 [mm] Cond.
2m. Res. Ros. Dir.2 Vit. Moy. Raf.3
23:00 16.4 16.4 12.8 NNO 1.9 -- 5.6 79 1020.1(0.5/3h) 9 -- -- --
22:00 17.2 17.2 12.7 N 3.7 -- 5.6 75 1020.1(0.8/3h) 14 -- -- --
21:00 19.2 19.2 12.3 N 5.6 -- 13.0 64 1020.1(0.9/3h) 20 -- -- --
20:00 20.9 20.9 12.4 N 3.7 -- 9.3 58 1019.3(0.5/3h) 20 -- -- --
19:00 23.4 23.4 12.7 N 5.6 -- 7.4 51 1019.1(0.0/3h) 20 -- -- --
18:00 25.1 25.1 12.7 NNO 5.6 -- 16.7 46 1018.8(-0.3/3h) 19 -- -- --
17:00 26.2 26.2 13.0 N 3.7 -- 11.1 44 1018.7(-0.6/3h) 20 -- -- --
16:00 26.2 26.2 12.5 N 5.6 -- 13.0 43 1019.1(-0.7/3h) 17 -- -- --
15:00 26.7 26.7 11.5 N 7.4 -- 16.7 39 1019.2(-1.0/3h) 16 -- -- --
14:00 28.3 28.3 12.2 NNO 1.9 -- 9.3 37 1019.5(-1.1/3h) 19 -- -- --
13:00 27.4 27.4 12.2 SSO 3.7 -- 9.3 39 1019.7(-1.0/3h) 19 -- -- --
12:00 26.7 26.7 11.4 SO 3.7 -- 11.1 38 1020.2(-0.9/3h) 20 -- -- --
11:00 25.5 25.5 11.1 SO 3.7 -- 11.1 40 1020.7(-0.5/3h) 20 -- -- --
10:00 24.6 24.6 12.3 SO 5.6 -- 11.1 46 1020.8(-0.9/3h) 20 -- -- --
09:00 23.1 23.1 11.6 SO 5.6 -- 11.1 48 1021.2(-0.7/3h) 18 -- -- --
08:00 21.8 21.8 12.1 SSO 5.6 -- 9.3 54 1021.2(-0.7/3h) 18 -- -- --
07:00 19.1 19.1 11.2 SSO 3.7 -- 5.6 60 1021.8(0.0/3h) 20 -- -- --
06:00 17.2 17.2 12.6 NNO 1.9 -- 3.7 74 1022.1(0.0/3h) 11 -- -- --
05:00 13.9 13.9 11.9 NNO 1.9 -- 1.9 88 1022.2(-0.4/3h) 9 -- -- --
04:00 12.0 12.0 11.0 NNO 0.0 -- 1.9 94 1022(-1.4/3h) 6 -- -- --
03:00 12.7 12.7 11.1 NNO 1.9 -- 3.7 90 1022.1(-1.6/3h) 9 -- -- --
02:00 12.6 12.6 10.7 NNO 1.9 -- 1.9 88 1022.7(-1.4/3h) 12 -- -- --
01:00 13.8 13.8 11.0 NNO 0.0 -- 3.7 83 1023.2(-1.1/3h) 14 -- -- --
00:00 15.1 15.1 10.8 NNO 1.9 -- 5.6 75 1023.7(-0.6/3h) 17 -- -- --

1 Coordinated Universal Time. Actuellement il est 23:00 locale et 21:00 UTC.

2 Le vent souffle depuis la direction indiquée vers la direction oposée.

3 Les rafales max. sont disponible 40 min après l'heure du relevé.

4 Pour les stations d'altitude (plus de 600m) le géopotentiel du niveau le plus proche de la pression obligatoire est indiqué.

5 Les stations disposant d'un diffuseur peuvent indiquer "trace". Cela signifie que des précipitations ont touchés le sol mais que la quantité est inférieure à 0.1 mm.

Récapitulatif de la journée
Température [°C] Vent [km/h] Ensoleillement4 [h] Precipitations totale5 [mm] Pression [Hpa]
Min1 Max.2 Moy.3 Max. Min Max.
11.3 28.5 0 16.7 0 h 0 min 0 1018.7 1023.7

1 Température minimale relevée entre 18:00 UTC la veille et 18:00 UTC le jour donné.

2 Température maximale relevée entre 06:00 UTC le jour donné et 06:00 UTC le lendemain.

3 Vent moyen de la journée basé sur les relevés horaires.

4 Ensoleillement en heures relevé entre 06:00 UTC la veille et 06:00 UTC le jour donné.

5 Précipitations totales tombées entre 06:00 UTC la jour donné et 06:00 UTC le lendemain.

Graphiques horaires